Time;durP1;ratioP1;P1;durP2;ratioP2;P2;SDS_P1;SDS_P2;PMS_P1;PMS_P2;Temp;Humidity;BMP_temperature;BMP_pressure;BME280_temperature;BME280_humidity;BME280_pressure;Samples;Min_cycle;Max_cycle;Signal;HPM_P1;HPM_P2
2021/12/05 00:23:41;;;;;;;52.10;21.10;;;-3.70;99.90;;;;;;5072269;28;20186;-59
2021/12/05 00:26:12;;;;;;;40.73;18.63;;;-3.80;99.90;;;;;;5071911;28;20228;-57
2021/12/05 00:46:29;;;;;;;44.10;18.47;;;-3.90;99.90;;;;;;5071979;28;20187;-58
2021/12/05 01:15:52;;;;;;;53.37;20.80;;;-4.40;99.90;;;;;;5092043;28;20567;-58
2021/12/05 01:18:19;;;;;;;55.83;23.43;;;-4.50;99.90;;;;;;5091515;28;20188;-57
2021/12/05 01:20:55;;;;;;;54.37;22.17;;;-4.60;99.90;;;;;;5091615;28;20178;-61
2021/12/05 01:23:32;;;;;;;58.07;19.67;;;-4.50;99.90;;;;;;5092265;28;20180;-60
2021/12/05 01:26:08;;;;;;;54.43;21.53;;;-4.50;99.90;;;;;;5095675;28;20255;-59
2021/12/05 01:31:17;;;;;;;49.37;21.27;;;-4.50;99.90;;;;;;5095221;28;20181;-58
2021/12/05 01:34:17;;;;;;;54.37;21.30;;;-4.50;99.90;;;;;;5096054;28;20199;-55
2021/12/05 01:58:09;;;;;;;55.63;23.30;;;-4.30;99.90;;;;;;5095298;28;20216;-57
2021/12/05 02:11:42;;;;;;;40.63;18.00;;;-4.10;99.90;;;;;;5094911;28;20196;-60
2021/12/05 02:38:46;;;;;;;55.17;21.63;;;-4.10;99.90;;;;;;5074452;28;20682;-56
2021/12/05 02:41:15;;;;;;;50.70;22.13;;;-4.10;99.90;;;;;;5074094;28;20188;-65
2021/12/05 02:43:48;;;;;;;59.00;22.00;;;-4.10;99.90;;;;;;5073977;28;20625;-59
2021/12/05 02:46:16;;;;;;;53.93;22.63;;;-4.10;99.90;;;;;;5073977;28;20196;-56
2021/12/05 02:48:43;;;;;;;55.47;21.07;;;-4.10;99.90;;;;;;5073795;28;20197;-56
2021/12/05 02:51:14;;;;;;;62.20;22.50;;;-4.20;99.90;;;;;;5055939;28;20710;-60
2021/12/05 02:53:50;;;;;;;60.30;23.03;;;-4.20;99.90;;;;;;5074124;28;20525;-57
2021/12/05 02:56:18;;;;;;;54.10;24.03;;;-4.20;99.90;;;;;;5073465;28;20249;-56
2021/12/05 02:58:54;;;;;;;60.27;25.00;;;-4.10;99.90;;;;;;5074101;28;20173;-59
2021/12/05 03:01:48;;;;;;;53.70;22.43;;;-4.00;99.90;;;;;;5073397;28;20190;-58
2021/12/05 03:04:13;;;;;;;54.57;22.27;;;-4.00;99.90;;;;;;5073377;28;20181;-56
2021/12/05 03:06:49;;;;;;;53.43;22.43;;;-4.00;99.90;;;;;;5073808;28;20220;-59
2021/12/05 03:09:15;;;;;;;52.00;21.57;;;-4.00;99.90;;;;;;5073498;28;20186;-57
2021/12/05 03:11:42;;;;;;;54.27;20.53;;;-4.10;99.90;;;;;;5076559;28;20231;-57
2021/12/05 03:14:08;;;;;;;53.13;20.23;;;-4.10;99.90;;;;;;5093843;28;20181;-56
2021/12/05 03:16:37;;;;;;;51.27;20.97;;;-4.20;99.90;;;;;;5075550;28;20221;-59
2021/12/05 03:19:06;;;;;;;55.67;21.10;;;-4.20;99.90;;;;;;5093600;28;20633;-65
2021/12/05 03:21:33;;;;;;;48.67;20.67;;;-4.20;99.90;;;;;;5093685;28;20695;-58
2021/12/05 03:23:59;;;;;;;52.03;21.20;;;-4.20;99.90;;;;;;5093664;28;20277;-56
2021/12/05 03:26:33;;;;;;;54.30;23.90;;;-4.20;99.90;;;;;;5093638;28;20268;-59
2021/12/05 03:28:59;;;;;;;60.90;21.67;;;-4.20;99.90;;;;;;5093887;28;20184;-57
2021/12/05 03:31:28;;;;;;;55.87;23.00;;;-4.20;99.90;;;;;;5074883;28;20192;-54
2021/12/05 03:33:55;;;;;;;59.90;23.23;;;-4.20;99.90;;;;;;5093389;28;20204;-56
2021/12/05 03:36:22;;;;;;;56.97;22.57;;;-4.20;99.90;;;;;;5093071;28;20271;-55
2021/12/05 03:38:48;;;;;;;44.80;20.57;;;-4.20;99.90;;;;;;5093400;28;20180;-55
2021/12/05 03:41:16;;;;;;;59.37;24.47;;;-4.20;99.90;;;;;;5093044;28;20633;-56
2021/12/05 03:43:44;;;;;;;48.53;19.80;;;-4.20;99.90;;;;;;5093510;28;20208;-56
2021/12/05 03:46:10;;;;;;;60.57;23.40;;;-4.20;99.90;;;;;;5057361;28;20553;-59
2021/12/05 03:48:40;;;;;;;60.63;23.83;;;-4.20;99.90;;;;;;5092942;28;20698;-59
2021/12/05 03:51:09;;;;;;;49.73;19.63;;;-4.20;99.90;;;;;;5092949;28;20580;-60
2021/12/05 03:53:35;;;;;;;83.00;29.10;;;-4.20;99.90;;;;;;5092873;28;20645;-57
2021/12/05 03:56:05;;;;;;;52.33;20.37;;;-4.20;99.90;;;;;;5093351;28;20231;-54
2021/12/05 03:58:32;;;;;;;45.93;18.03;;;-4.10;99.90;;;;;;5092824;28;20177;-55
2021/12/05 04:00:59;;;;;;;40.73;17.43;;;-4.10;99.90;;;;;;5092608;28;20246;-59
2021/12/05 04:03:27;;;;;;;43.87;17.63;;;-4.20;99.90;;;;;;5092331;28;21102;-58
2021/12/05 04:05:53;;;;;;;49.87;19.20;;;-4.10;99.90;;;;;;5092875;28;20183;-57
2021/12/05 04:08:23;;;;;;;42.20;15.83;;;-4.00;99.90;;;;;;5074375;28;20271;-58
2021/12/05 04:10:52;;;;;;;38.03;16.47;;;-4.00;99.90;;;;;;5092728;28;20193;-59
2021/12/05 04:13:19;;;;;;;37.13;15.57;;;-3.90;99.90;;;;;;5092170;28;20236;-59
2021/12/05 04:15:47;;;;;;;39.40;17.70;;;-3.90;99.90;;;;;;5092418;28;20213;-58
2021/12/05 04:18:13;;;;;;;34.10;15.67;;;-3.90;99.90;;;;;;5073788;28;20239;-58
2021/12/05 04:20:39;;;;;;;53.67;20.43;;;-3.80;99.90;;;;;;5092646;28;20178;-58
2021/12/05 04:23:05;;;;;;;41.40;16.83;;;-3.70;99.90;;;;;;5092287;28;20205;-56
2021/12/05 04:25:36;;;;;;;40.50;16.93;;;-3.70;99.90;;;;;;5092137;28;20180;-58
2021/12/05 04:28:09;;;;;;;42.23;17.77;;;-3.60;99.90;;;;;;5092210;28;20224;-59
2021/12/05 04:30:35;;;;;;;43.27;17.10;;;-3.60;99.90;;;;;;5092318;28;20206;-56
2021/12/05 04:33:02;;;;;;;47.70;19.63;;;-3.50;99.90;;;;;;5091883;28;20174;-56
2021/12/05 04:35:28;;;;;;;49.23;20.13;;;-3.50;99.90;;;;;;5092018;28;20186;-59
2021/12/05 04:37:53;;;;;;;49.03;18.50;;;-3.50;99.90;;;;;;5092183;28;20221;-59
2021/12/05 04:40:19;;;;;;;149.40;31.00;;;-3.50;99.90;;;;;;5073588;28;20541;-59
2021/12/05 04:42:45;;;;;;;53.83;20.50;;;-3.60;99.90;;;;;;5091837;28;20207;-56
2021/12/05 04:45:26;;;;;;;48.50;20.40;;;-3.40;99.90;;;;;;5091647;28;20193;-56
2021/12/05 04:47:53;;;;;;;53.67;21.97;;;-3.40;99.90;;;;;;5092249;28;20173;-56
2021/12/05 04:50:20;;;;;;;48.70;20.37;;;-3.40;99.90;;;;;;5073231;28;20188;-59
2021/12/05 04:52:47;;;;;;;51.30;21.30;;;-3.50;99.90;;;;;;5091785;28;20236;-57
2021/12/05 04:55:13;;;;;;;58.70;23.87;;;-3.60;99.90;;;;;;5091270;28;20629;-57
2021/12/05 04:57:40;;;;;;;56.20;22.77;;;-3.60;99.90;;;;;;5091609;28;20224;-59
2021/12/05 05:00:12;;;;;;;57.93;25.10;;;-3.60;99.90;;;;;;5073649;28;20168;-57
2021/12/05 05:02:38;;;;;;;58.90;20.67;;;-3.60;99.90;;;;;;5073941;28;20587;-56
2021/12/05 05:05:04;;;;;;;64.80;24.63;;;-3.50;99.90;;;;;;5091752;28;20238;-59
2021/12/05 05:07:30;;;;;;;52.20;24.17;;;-3.50;99.90;;;;;;5091306;28;20193;-58
2021/12/05 05:10:06;;;;;;;53.83;22.70;;;-3.40;99.90;;;;;;5091432;28;20179;-58
2021/12/05 05:12:32;;;;;;;57.97;22.03;;;-3.40;99.90;;;;;;5091287;28;20315;-58
2021/12/05 05:14:57;;;;;;;54.13;21.17;;;-3.40;99.90;;;;;;5091522;28;20612;-56
2021/12/05 05:17:24;;;;;;;58.80;22.80;;;-3.40;99.90;;;;;;5091185;28;20210;-58
2021/12/05 05:19:55;;;;;;;51.00;21.90;;;-3.50;99.90;;;;;;5091147;28;20186;-58
2021/12/05 05:22:31;;;;;;;60.90;23.63;;;-3.50;99.90;;;;;;5091220;28;20178;-58
2021/12/05 05:28:08;;;;;;;52.27;22.63;;;-3.50;99.90;;;;;;5091613;28;20508;-57
2021/12/05 05:42:09;;;;;;;61.37;22.43;;;-3.40;99.90;;;;;;5075173;28;20183;-57
2021/12/05 05:47:09;;;;;;;58.60;23.87;;;-3.40;99.90;;;;;;5091424;28;20188;-56
2021/12/05 05:52:11;;;;;;;51.47;23.10;;;-3.40;99.90;;;;;;5091490;28;20175;-56
2021/12/05 05:54:36;;;;;;;58.40;22.53;;;-3.40;99.90;;;;;;5091199;28;20193;-56
2021/12/05 05:57:15;;;;;;;59.93;23.33;;;-3.40;99.90;;;;;;5091321;28;20203;-57
2021/12/05 05:59:49;;;;;;;60.47;24.03;;;-3.40;99.90;;;;;;5072842;28;20666;-58
2021/12/05 06:04:40;;;;;;;55.80;22.73;;;-3.30;99.90;;;;;;5072973;28;20316;-57
2021/12/05 06:07:08;;;;;;;51.33;21.60;;;-3.30;99.90;;;;;;5091212;28;20209;-59
2021/12/05 06:09:34;;;;;;;56.57;23.97;;;-3.30;99.90;;;;;;5091787;28;20181;-56
2021/12/05 06:12:00;;;;;;;53.53;24.20;;;-3.30;99.90;;;;;;5095276;28;20241;-56
2021/12/05 06:14:28;;;;;;;55.13;22.03;;;-3.30;99.90;;;;;;5094510;28;20259;-55
2021/12/05 06:16:54;;;;;;;57.27;22.83;;;-3.20;99.90;;;;;;5094628;28;20308;-56
2021/12/05 06:19:19;;;;;;;59.60;23.57;;;-3.20;99.90;;;;;;5094438;28;20267;-55
2021/12/05 06:21:45;;;;;;;53.67;22.40;;;-3.20;99.90;;;;;;5094839;28;20182;-58
2021/12/05 06:24:11;;;;;;;59.33;24.90;;;-3.10;99.90;;;;;;5094764;28;20544;-57
2021/12/05 06:26:37;;;;;;;65.03;26.77;;;-3.10;99.90;;;;;;5094131;28;20183;-60
2021/12/05 06:47:31;;;;;;;49.30;20.63;;;-3.00;99.90;;;;;;5088960;28;20665;-57
2021/12/05 06:49:57;;;;;;;53.27;22.60;;;-3.00;99.90;;;;;;5094161;28;20260;-56
2021/12/05 06:52:23;;;;;;;44.70;21.03;;;-3.00;99.90;;;;;;5093863;28;20188;-56
2021/12/05 06:54:49;;;;;;;60.00;23.03;;;-3.00;99.90;;;;;;5093957;28;20232;-57
2021/12/05 06:57:15;;;;;;;47.53;21.30;;;-3.00;99.90;;;;;;5093341;28;20245;-64
2021/12/05 06:59:45;;;;;;;53.97;22.43;;;-3.00;99.90;;;;;;5093485;28;20199;-57
2021/12/05 07:02:12;;;;;;;51.20;21.53;;;-2.90;99.90;;;;;;5093946;28;20206;-57
2021/12/05 07:04:49;;;;;;;56.13;22.80;;;-2.80;99.90;;;;;;5075566;28;20262;-57
2021/12/05 07:07:26;;;;;;;51.73;20.33;;;-2.80;99.90;;;;;;5093445;28;20596;-65
2021/12/05 07:09:53;;;;;;;55.07;21.03;;;-2.80;99.90;;;;;;5094038;28;20278;-57
2021/12/05 07:20:06;;;;;;;50.20;19.97;;;-2.10;99.90;;;;;;5093847;28;20195;-59
2021/12/05 07:22:43;;;;;;;59.10;21.47;;;-2.10;99.90;;;;;;5093077;28;20180;-58
2021/12/05 07:25:25;;;;;;;61.13;22.43;;;-2.20;99.90;;;;;;5093181;28;20193;-58
2021/12/05 07:41:51;;;;;;;64.03;22.00;;;-2.00;99.90;;;;;;5087480;28;20316;-56
2021/12/05 07:44:16;;;;;;;58.50;21.53;;;-2.00;99.90;;;;;;5065991;28;20259;-55
2021/12/05 07:46:43;;;;;;;57.63;22.03;;;-2.00;99.90;;;;;;5072498;28;20183;-54
2021/12/05 07:49:10;;;;;;;62.13;22.47;;;-2.10;99.90;;;;;;5055020;28;20192;-58
2021/12/05 07:51:41;;;;;;;57.07;20.50;;;-2.00;99.90;;;;;;5071988;28;20270;-56
2021/12/05 07:54:16;;;;;;;64.40;22.77;;;-2.00;99.90;;;;;;5072223;28;20195;-54
2021/12/05 07:56:50;;;;;;;58.67;23.57;;;-1.90;99.90;;;;;;5071519;28;20581;-57
2021/12/05 08:15:34;;;;;;;64.33;23.63;;;-1.20;99.90;;;;;;5091697;28;20220;-58
2021/12/05 08:17:59;;;;;;;58.97;22.67;;;-1.10;99.90;;;;;;5091962;28;20277;-53
2021/12/05 08:20:31;;;;;;;59.50;23.10;;;-1.10;99.90;;;;;;5091710;28;20564;-54
2021/12/05 08:22:59;;;;;;;60.00;26.00;;;-1.00;99.90;;;;;;5091728;28;20238;-54
2021/12/05 08:25:28;;;;;;;62.50;25.13;;;-0.80;99.90;;;;;;5073038;28;20620;-59
2021/12/05 08:28:04;;;;;;;66.33;25.93;;;-0.80;99.90;;;;;;5091369;28;20636;-56
2021/12/05 08:30:34;;;;;;;65.53;25.27;;;-0.60;99.90;;;;;;5091738;28;20180;-52
2021/12/05 09:51:20;;;;;;;40.63;17.53;;;0.80;99.90;;;;;;5094967;28;20294;-58
2021/12/05 10:13:11;;;;;;;54.93;22.77;;;0.60;99.90;;;;;;4989875;28;20325;-58
2021/12/05 10:35:23;;;;;;;59.93;24.60;;;0.50;99.90;;;;;;5051982;28;20174;-53
2021/12/05 10:37:54;;;;;;;49.57;20.87;;;0.60;99.90;;;;;;5050979;28;20325;-55
2021/12/05 10:40:34;;;;;;;60.10;22.57;;;0.70;99.90;;;;;;5051116;28;20177;-59
2021/12/05 10:43:01;;;;;;;59.30;22.10;;;0.70;99.90;;;;;;5066035;28;20291;-58
2021/12/05 10:45:38;;;;;;;55.07;20.53;;;0.70;99.90;;;;;;5070991;28;20655;-55
2021/12/05 10:48:38;;;;;;;50.53;21.33;;;0.60;99.90;;;;;;5053368;28;20645;-55
2021/12/05 10:51:29;;;;;;;56.03;22.23;;;0.60;99.90;;;;;;5006208;28;20208;-58
2021/12/05 10:53:57;;;;;;;52.50;20.60;;;0.60;99.90;;;;;;5066142;28;20236;-58
2021/12/05 10:56:27;;;;;;;59.50;24.07;;;0.60;99.90;;;;;;5070264;28;20191;-56
2021/12/05 10:59:02;;;;;;;65.03;24.40;;;0.80;99.90;;;;;;5071757;28;20189;-57
2021/12/05 11:01:32;;;;;;;53.67;23.73;;;0.90;99.90;;;;;;5071089;28;20184;-53
2021/12/05 11:04:02;;;;;;;46.70;20.33;;;1.00;99.90;;;;;;5070612;28;20183;-56
2021/12/05 11:06:35;;;;;;;52.67;20.90;;;1.10;99.90;;;;;;5071014;28;20178;-57
2021/12/05 11:09:09;;;;;;;54.97;20.97;;;1.20;99.90;;;;;;5071579;28;20627;-61
2021/12/05 11:11:35;;;;;;;52.70;20.90;;;1.40;99.90;;;;;;5070217;28;20224;-57
2021/12/05 11:14:07;;;;;;;57.87;22.50;;;1.50;99.90;;;;;;5091682;28;20571;-53
2021/12/05 11:16:43;;;;;;;56.73;21.83;;;1.60;99.90;;;;;;5090536;28;20246;-58
2021/12/05 11:19:22;;;;;;;64.60;22.77;;;1.60;99.90;;;;;;5082326;28;20192;-53
2021/12/05 11:22:06;;;;;;;75.17;35.60;;;1.50;99.90;;;;;;5072448;28;20279;-50
2021/12/05 11:24:40;;;;;;;63.33;23.30;;;1.40;99.90;;;;;;5070254;28;20499;-53
2021/12/05 11:27:08;;;;;;;62.43;22.77;;;1.20;99.90;;;;;;5070544;28;20195;-55
2021/12/05 11:29:49;;;;;;;64.17;24.73;;;1.10;99.90;;;;;;5051972;28;20305;-58
2021/12/05 11:32:30;;;;;;;66.20;25.57;;;1.20;99.90;;;;;;5073568;28;20682;-53
2021/12/05 11:34:56;;;;;;;60.97;23.87;;;1.20;99.90;;;;;;5088637;28;20179;-51
2021/12/05 11:37:22;;;;;;;65.40;23.70;;;1.30;99.90;;;;;;5091474;28;20204;-56
2021/12/05 11:39:48;;;;;;;74.47;26.37;;;1.20;99.90;;;;;;5091771;28;20187;-52
2021/12/05 11:42:20;;;;;;;68.33;28.50;;;1.30;99.90;;;;;;5092328;28;20200;-52
2021/12/05 11:44:52;;;;;;;74.60;25.97;;;1.40;99.90;;;;;;5092551;28;20175;-49
2021/12/05 11:47:22;;;;;;;65.90;24.70;;;1.30;99.90;;;;;;5090757;28;20199;-59
2021/12/05 11:49:49;;;;;;;70.83;25.70;;;1.40;99.90;;;;;;5092455;28;20180;-57
2021/12/05 11:52:22;;;;;;;80.83;30.97;;;1.40;99.90;;;;;;5074292;28;20619;-51
2021/12/05 11:54:48;;;;;;;63.67;24.57;;;1.50;99.90;;;;;;5092706;28;20172;-51
2021/12/05 11:57:24;;;;;;;69.13;27.40;;;1.50;99.90;;;;;;5092809;28;20209;-51
2021/12/05 11:59:50;;;;;;;68.37;26.97;;;1.50;99.90;;;;;;5092311;28;20181;-56
2021/12/05 12:02:30;;;;;;;67.00;25.90;;;1.50;99.90;;;;;;5092454;28;20223;-55
2021/12/05 12:04:56;;;;;;;71.93;26.93;;;1.60;99.90;;;;;;5091638;28;20183;-55
2021/12/05 12:07:36;;;;;;;73.47;26.90;;;1.70;99.90;;;;;;5091101;28;20656;-53
2021/12/05 12:10:17;;;;;;;73.53;26.57;;;2.00;99.90;;;;;;5091628;28;20180;-55
2021/12/05 12:12:46;;;;;;;62.50;24.10;;;1.80;99.90;;;;;;5090942;28;20273;-57
2021/12/05 12:15:14;;;;;;;62.77;25.53;;;1.90;99.90;;;;;;5092179;28;20179;-53
2021/12/05 12:17:42;;;;;;;69.07;27.13;;;2.00;99.90;;;;;;5091873;28;20227;-53
2021/12/05 12:20:11;;;;;;;80.27;29.40;;;2.00;99.90;;;;;;5091572;28;20570;-56
2021/12/05 12:22:38;;;;;;;77.93;28.77;;;2.00;99.90;;;;;;5091625;28;20212;-54
2021/12/05 12:25:11;;;;;;;65.80;27.37;;;2.10;99.90;;;;;;5090959;28;20274;-52
2021/12/05 12:27:40;;;;;;;76.43;28.97;;;2.20;99.90;;;;;;5091382;28;20245;-57
2021/12/05 12:30:08;;;;;;;65.27;25.03;;;2.30;99.90;;;;;;5091238;28;20181;-59
2021/12/05 12:32:38;;;;;;;67.33;26.37;;;2.40;99.90;;;;;;5091258;28;20209;-53
2021/12/05 12:35:12;;;;;;;57.40;23.70;;;2.50;99.90;;;;;;5091682;28;20207;-54
2021/12/05 12:37:58;;;;;;;59.33;24.73;;;2.30;99.90;;;;;;5091279;28;20257;-59
2021/12/05 12:40:35;;;;;;;69.07;23.73;;;2.20;99.90;;;;;;5091033;28;20193;-53
2021/12/05 12:43:01;;;;;;;65.30;24.83;;;2.10;99.90;;;;;;5091139;28;20278;-59
2021/12/05 12:45:28;;;;;;;61.33;25.10;;;2.10;99.90;;;;;;5090980;28;20173;-58
2021/12/05 12:47:58;;;;;;;62.40;24.30;;;2.10;99.90;;;;;;5062246;28;20684;-54
2021/12/05 12:50:34;;;;;;;51.87;21.97;;;2.10;99.90;;;;;;5070829;28;20602;-56
2021/12/05 12:53:09;;;;;;;59.90;23.50;;;2.10;99.90;;;;;;5071252;28;20472;-54
2021/12/05 12:55:37;;;;;;;51.40;21.73;;;2.10;99.90;;;;;;5070740;28;20655;-55
2021/12/05 12:58:07;;;;;;;70.05;29.58;;;2.10;99.90;;;;;;5069910;28;20434;-50
2021/12/05 13:00:36;;;;;;;62.53;25.13;;;2.10;99.90;;;;;;5082417;28;20567;-60
2021/12/05 13:03:14;;;;;;;59.70;27.07;;;2.10;99.90;;;;;;5091584;28;20179;-62
2021/12/05 13:11:48;;;;;;;60.63;23.63;;;2.30;99.90;;;;;;5090365;28;20196;-64
2021/12/05 13:14:14;;;;;;;55.73;23.03;;;2.40;99.90;;;;;;5091046;28;20195;-64
2021/12/05 13:16:44;;;;;;;57.63;23.63;;;2.20;99.90;;;;;;5090664;28;20211;-64
2021/12/05 13:19:22;;;;;;;57.93;24.17;;;2.10;99.90;;;;;;5094250;28;20236;-62
2021/12/05 13:21:52;;;;;;;61.00;24.73;;;1.90;99.90;;;;;;5098083;28;20187;-66
2021/12/05 13:24:30;;;;;;;61.73;24.23;;;1.80;99.90;;;;;;5097633;28;20199;-57
2021/12/05 13:27:04;;;;;;;57.60;24.77;;;1.60;99.90;;;;;;5097794;28;20486;-56
2021/12/05 13:29:34;;;;;;;61.90;24.73;;;1.60;99.90;;;;;;5097309;28;20486;-56
2021/12/05 13:32:24;;;;;;;67.90;25.80;;;1.70;99.90;;;;;;5098464;28;20180;-59
2021/12/05 13:34:51;;;;;;;66.47;26.57;;;1.60;99.90;;;;;;5097819;28;20222;-60
2021/12/05 13:37:30;;;;;;;71.70;26.80;;;1.70;99.90;;;;;;5097625;28;20262;-59
2021/12/05 13:40:13;;;;;;;75.03;27.37;;;1.60;99.90;;;;;;5097507;28;20661;-57
2021/12/05 13:42:47;;;;;;;65.40;26.53;;;1.60;99.90;;;;;;5097101;28;20205;-59
2021/12/05 13:45:15;;;;;;;64.70;27.20;;;1.50;99.90;;;;;;5097976;28;20576;-62
2021/12/05 13:47:52;;;;;;;67.97;28.93;;;1.50;99.90;;;;;;5097112;28;20226;-51
2021/12/05 13:50:27;;;;;;;68.97;25.13;;;1.50;99.90;;;;;;5097472;28;20189;-53
2021/12/05 13:53:01;;;;;;;59.60;23.80;;;1.50;99.90;;;;;;5097365;28;20169;-56
2021/12/05 13:55:45;;;;;;;60.23;23.43;;;1.50;99.90;;;;;;5097046;28;20171;-55
2021/12/05 13:58:32;;;;;;;60.47;23.60;;;1.40;99.90;;;;;;5097031;28;20211;-54
2021/12/05 14:01:57;;;;;;;56.80;24.73;;;1.30;99.90;;;;;;5078599;28;20188;-58
2021/12/05 14:04:26;;;;;;;65.50;27.03;;;1.20;99.90;;;;;;5014388;28;20258;-58
2021/12/05 14:07:06;;;;;;;63.23;25.00;;;1.20;99.90;;;;;;5012433;28;20654;-55
2021/12/05 14:09:33;;;;;;;66.27;25.23;;;1.10;99.90;;;;;;5055737;28;20188;-53
2021/12/05 14:12:31;;;;;;;81.67;33.20;;;1.10;99.90;;;;;;5096050;28;20227;-56
2021/12/05 14:15:03;;;;;;;67.73;25.67;;;1.20;99.90;;;;;;5096331;28;20175;-55
2021/12/05 14:17:33;;;;;;;63.63;24.47;;;1.30;99.90;;;;;;5096307;28;20596;-54
2021/12/05 14:20:14;;;;;;;63.83;27.30;;;1.50;99.90;;;;;;5078467;28;20180;-57
2021/12/05 14:22:42;;;;;;;68.87;24.27;;;1.50;99.90;;;;;;5093181;28;20202;-57
2021/12/05 14:25:12;;;;;;;69.97;28.03;;;1.30;99.90;;;;;;5097545;28;20186;-59
2021/12/05 14:27:45;;;;;;;73.80;28.80;;;1.40;99.90;;;;;;5096665;28;20184;-55
2021/12/05 14:30:15;;;;;;;71.43;25.67;;;1.40;99.90;;;;;;5095228;28;20207;-55
2021/12/05 14:32:45;;;;;;;63.60;25.37;;;1.40;99.90;;;;;;5093317;28;20261;-56
2021/12/05 14:35:17;;;;;;;67.33;25.60;;;1.30;99.90;;;;;;5074096;28;20180;-56
2021/12/05 14:37:45;;;;;;;67.93;26.53;;;1.30;99.90;;;;;;5073486;28;20207;-52
2021/12/05 14:40:14;;;;;;;69.47;27.13;;;1.20;99.90;;;;;;5073102;28;20269;-59
2021/12/05 14:42:43;;;;;;;70.93;27.40;;;1.20;99.90;;;;;;5084967;28;20183;-54
2021/12/05 14:45:24;;;;;;;79.73;28.13;;;1.10;99.90;;;;;;5094063;28;20698;-53
2021/12/05 14:47:53;;;;;;;78.90;28.10;;;1.10;99.90;;;;;;5093393;28;20219;-55
2021/12/05 14:50:24;;;;;;;73.17;27.30;;;1.00;99.90;;;;;;5093617;28;20206;-57
2021/12/05 14:52:55;;;;;;;68.80;26.77;;;1.00;99.90;;;;;;5093362;28;20174;-60
2021/12/05 14:55:23;;;;;;;71.80;27.63;;;1.00;99.90;;;;;;5093183;28;20815;-68
2021/12/05 14:57:52;;;;;;;65.57;26.27;;;1.10;99.90;;;;;;5093336;28;20217;-57
2021/12/05 15:00:44;;;;;;;69.30;28.07;;;1.00;99.90;;;;;;5093059;28;20586;-57
2021/12/05 15:03:17;;;;;;;77.23;27.17;;;1.00;99.90;;;;;;5093120;28;20182;-61
2021/12/05 15:05:49;;;;;;;76.70;28.13;;;1.00;99.90;;;;;;5092551;28;20609;-53
2021/12/05 15:08:18;;;;;;;65.60;24.23;;;1.00;99.90;;;;;;5075232;28;20173;-51
2021/12/05 15:10:46;;;;;;;72.80;25.63;;;0.90;99.90;;;;;;5074928;28;20192;-55
2021/12/05 15:13:12;;;;;;;71.70;25.13;;;0.90;99.90;;;;;;5092561;28;20761;-62
2021/12/05 15:15:38;;;;;;;68.47;24.60;;;0.80;99.90;;;;;;5093122;28;20248;-58
2021/12/05 15:18:05;;;;;;;65.43;23.33;;;0.80;99.90;;;;;;5092052;28;20234;-58
2021/12/05 15:20:33;;;;;;;62.10;24.07;;;0.80;99.90;;;;;;5093021;28;20526;-56
2021/12/05 15:23:10;;;;;;;72.33;27.97;;;0.90;99.90;;;;;;5092847;28;20178;-54
2021/12/05 15:25:39;;;;;;;64.30;25.10;;;0.90;99.90;;;;;;5092886;28;20266;-55
2021/12/05 15:28:08;;;;;;;65.23;23.27;;;0.90;99.90;;;;;;5092704;28;20217;-54
2021/12/05 15:30:40;;;;;;;74.37;26.50;;;1.00;99.90;;;;;;5092460;28;20186;-60
2021/12/05 15:33:14;;;;;;;73.40;27.87;;;1.00;99.90;;;;;;5073927;28;20215;-55
2021/12/05 15:35:40;;;;;;;66.00;25.07;;;1.00;99.90;;;;;;5072021;28;20284;-58
2021/12/05 15:38:10;;;;;;;67.60;24.63;;;1.00;99.90;;;;;;5092537;28;20233;-58
2021/12/05 15:40:41;;;;;;;72.20;25.17;;;1.00;99.90;;;;;;5092538;28;20239;-54
2021/12/05 15:43:12;;;;;;;75.60;28.47;;;1.00;99.90;;;;;;5091526;28;20190;-54
2021/12/05 15:45:41;;;;;;;75.03;27.17;;;1.00;99.90;;;;;;5074256;28;20185;-59
2021/12/05 15:48:08;;;;;;;78.93;26.90;;;1.10;99.90;;;;;;5093094;28;20274;-58
2021/12/05 15:50:39;;;;;;;79.47;31.13;;;1.10;99.90;;;;;;5057528;28;20188;-60
2021/12/05 15:53:10;;;;;;;77.50;28.03;;;1.00;99.90;;;;;;5092302;28;20182;-59
2021/12/05 15:55:39;;;;;;;67.47;26.17;;;1.00;99.90;;;;;;5092095;28;20190;-55
2021/12/05 15:58:11;;;;;;;72.63;28.17;;;1.00;99.90;;;;;;5092075;28;20302;-59
2021/12/05 16:00:43;;;;;;;79.27;27.87;;;1.00;99.90;;;;;;5091904;28;20190;-60
2021/12/05 16:03:09;;;;;;;81.73;29.87;;;1.00;99.90;;;;;;5092300;28;20635;-60
2021/12/05 16:05:37;;;;;;;70.83;26.77;;;1.10;99.90;;;;;;5092123;28;20214;-55
2021/12/05 16:08:15;;;;;;;65.63;24.43;;;1.00;99.90;;;;;;5073462;28;20235;-58
2021/12/05 16:10:46;;;;;;;76.10;26.73;;;1.00;99.90;;;;;;5091800;28;20926;-59
2021/12/05 16:13:14;;;;;;;79.57;28.00;;;1.00;99.90;;;;;;5091174;28;20720;-59
2021/12/05 16:15:42;;;;;;;68.53;23.30;;;1.00;99.90;;;;;;5091887;28;20180;-58
2021/12/05 16:18:08;;;;;;;74.93;24.07;;;1.00;99.90;;;;;;5073572;28;20258;-54
2021/12/05 16:20:45;;;;;;;75.37;26.37;;;0.90;99.90;;;;;;5073206;28;20264;-55
2021/12/05 16:23:25;;;;;;;66.37;24.10;;;0.90;99.90;;;;;;5091829;28;20175;-56
2021/12/05 16:26:10;;;;;;;80.20;26.23;;;1.00;99.90;;;;;;5091921;28;20526;-60
2021/12/05 16:28:37;;;;;;;82.03;26.70;;;1.00;99.90;;;;;;5091528;28;20350;-52
2021/12/05 16:31:17;;;;;;;68.23;25.00;;;1.00;99.90;;;;;;5091855;28;20190;-57
2021/12/05 16:33:57;;;;;;;79.93;26.80;;;1.00;99.90;;;;;;5091338;28;20234;-52
2021/12/05 16:36:32;;;;;;;77.33;26.90;;;0.90;99.90;;;;;;5090466;28;20246;-52
2021/12/05 16:39:10;;;;;;;80.30;26.40;;;0.90;99.90;;;;;;5088442;28;20184;-54
2021/12/05 16:41:37;;;;;;;78.63;25.87;;;0.90;99.90;;;;;;5089296;28;20193;-57
2021/12/05 16:44:10;;;;;;;81.43;24.07;;;0.80;99.90;;;;;;5071336;28;20594;-55
2021/12/05 16:46:41;;;;;;;70.10;24.57;;;0.80;99.90;;;;;;5089507;28;20277;-56
2021/12/05 16:49:15;;;;;;;81.73;27.13;;;0.80;99.90;;;;;;5089720;28;20199;-55
2021/12/05 16:51:51;;;;;;;89.37;27.03;;;0.80;99.90;;;;;;5088969;28;20198;-56
2021/12/05 16:54:30;;;;;;;81.30;26.33;;;0.70;99.90;;;;;;5071167;28;20173;-55
2021/12/05 16:57:29;;;;;;;83.17;25.00;;;0.60;99.90;;;;;;5089630;28;20208;-62
2021/12/05 17:00:03;;;;;;;76.60;22.93;;;0.60;99.90;;;;;;5083874;28;20193;-57
2021/12/05 17:02:32;;;;;;;85.57;24.03;;;0.60;99.90;;;;;;5089438;28;20185;-55
2021/12/05 17:05:03;;;;;;;82.93;25.40;;;0.60;99.90;;;;;;5089260;28;20681;-57
2021/12/05 17:07:40;;;;;;;79.30;22.77;;;0.60;99.90;;;;;;5088780;28;20194;-58
2021/12/05 17:10:20;;;;;;;81.67;26.30;;;0.60;99.90;;;;;;5071683;28;20192;-62
2021/12/05 17:12:47;;;;;;;82.03;26.13;;;0.60;99.90;;;;;;5088727;28;20233;-55
2021/12/05 17:15:34;;;;;;;85.77;24.70;;;0.60;99.90;;;;;;5088809;28;20191;-58
2021/12/05 17:18:04;;;;;;;89.57;26.53;;;0.60;99.90;;;;;;5068894;28;20233;-51
2021/12/05 17:20:36;;;;;;;89.23;26.17;;;0.50;99.90;;;;;;5067865;28;20190;-57
2021/12/05 17:23:03;;;;;;;91.90;25.97;;;0.50;99.90;;;;;;5068581;28;20206;-55
2021/12/05 17:25:36;;;;;;;84.40;26.23;;;0.50;99.90;;;;;;5068576;28;20185;-57
2021/12/05 17:28:06;;;;;;;90.17;27.67;;;0.50;99.90;;;;;;5064629;28;20744;-55
2021/12/05 17:30:32;;;;;;;77.57;24.27;;;0.50;99.90;;;;;;5102316;28;20612;-55
2021/12/05 17:32:59;;;;;;;102.37;27.53;;;0.50;99.90;;;;;;5107909;28;20527;-62
2021/12/05 17:35:27;;;;;;;88.53;25.83;;;0.50;99.90;;;;;;5107277;28;20195;-56
2021/12/05 17:37:52;;;;;;;91.07;24.33;;;0.50;99.90;;;;;;5108014;28;20204;-61
2021/12/05 17:40:19;;;;;;;194.40;47.40;;;0.40;99.90;;;;;;5107486;28;20727;-61
2021/12/05 17:42:45;;;;;;;83.23;28.93;;;0.70;99.90;;;;;;5107215;28;20197;-56
2021/12/05 17:45:13;;;;;;;74.93;22.60;;;0.80;99.90;;;;;;5108160;28;20277;-54
2021/12/05 17:47:40;;;;;;;83.47;21.17;;;0.80;99.90;;;;;;5091440;28;20188;-55
2021/12/05 17:50:11;;;;;;;77.07;24.10;;;0.70;99.90;;;;;;5109087;28;20532;-54
2021/12/05 17:52:37;;;;;;;85.07;26.17;;;0.50;99.90;;;;;;5109475;28;20191;-60
2021/12/05 17:55:12;;;;;;;73.77;23.23;;;0.60;99.90;;;;;;5086222;28;20203;-58
2021/12/05 17:57:42;;;;;;;74.67;21.67;;;0.50;99.90;;;;;;5072351;28;20205;-55
2021/12/05 18:00:34;;;;;;;90.63;27.37;;;0.30;99.90;;;;;;5076783;28;20653;-55
2021/12/05 18:03:03;;;;;;;70.70;23.97;;;0.40;99.90;;;;;;5088790;28;20176;-57
2021/12/05 18:05:41;;;;;;;81.90;24.17;;;0.30;99.90;;;;;;5088691;28;20234;-59
2021/12/05 18:08:10;;;;;;;81.60;23.07;;;0.30;99.90;;;;;;5073201;28;20196;-57
2021/12/05 18:10:40;;;;;;;76.67;21.70;;;0.20;99.90;;;;;;5091146;28;20184;-54
2021/12/05 18:13:10;;;;;;;80.27;21.23;;;0.10;99.90;;;;;;5082938;28;20746;-58
2021/12/05 18:15:37;;;;;;;83.53;24.00;;;0.10;99.90;;;;;;5092419;28;20179;-58
2021/12/05 18:18:06;;;;;;;82.63;22.47;;;0.10;99.90;;;;;;5092270;28;20971;-59
2021/12/05 18:20:35;;;;;;;78.70;22.40;;;0.10;99.90;;;;;;5092074;28;20201;-59
2021/12/05 18:23:04;;;;;;;75.37;21.83;;;0.10;99.90;;;;;;5092102;28;20269;-60